SBRB

Plácido de Castro Airport

Rio Branco, Brazil
TAF SBRB 171600Z 1718/1818 32005KT 9999 SCT025 FEW030TCU TX30/1719Z T N23/1808Z BECMG 1719/1721 27002KT 9999 TSRA SCT020 FEW025CB BECMG 1723/1801 36 005KT 9999 SCT017 BECMG 1803/1805 06003KT FEW005 BECMG 1807/1809 23002KT 5 000 BR FEW015 BECMG 1811/1813 33005KT 9999 SCT010 BECMG 1815/1817 SCT030 FEW035TCU RMK PDY
Issued Valid From Valid To
Nov-17 @ 16:00 UTC
(6 hours ago)
Nov-17 @ 18:00 UTC
(4 hours ago)
Nov-18 @ 18:00 UTC
(in 20 hours)
Expired Click to View Nov-17 @ 18:00 to Nov-17 @ 19:00
TAF SBRB 171600Z 1718/1818 32005KT 9999 SCT025 FEW030TCU TX30/1719Z T N23/1808Z
Wind Visibility Clouds
320° at 5 knots 10,000+ meters
  • Scattered at 2,500' AGL
  • Few at 3,000' AGL
Becoming Nov-17 @ 19:00 to Nov-17 @ 23:00
BECMG 1719/1721 27002KT 9999 TSRA SCT020 FEW025CB
Wind Visibility Clouds Conditions
270° at 2 knots 10,000+ meters
  • Scattered at 2,000' AGL
  • Few at 2,500' AGL
  • Thunderstorm
  • Rain
Becoming Nov-17 @ 23:00 to Nov-18 @ 03:00
BECMG 1723/1801 36 005KT 9999 SCT017
Wind Visibility Clouds Conditions
270° at 2 knots 10,000+ meters
  • Scattered at 1,700' AGL
  • Thunderstorm
  • Rain
Becoming Nov-18 @ 03:00 to Nov-18 @ 07:00
BECMG 1803/1805 06003KT FEW005
Wind Visibility Clouds Conditions
60° at 3 knots 10,000+ meters
  • Few at 500' AGL
  • Thunderstorm
  • Rain
Becoming Nov-18 @ 07:00 to Nov-18 @ 11:00
BECMG 1807/1809 23002KT 5 000 BR FEW015
Wind Visibility Clouds Conditions
230° at 2 knots 10,000+ meters
  • Few at 1,500' AGL
  • Mist
Becoming Nov-18 @ 11:00 to Nov-18 @ 15:00
BECMG 1811/1813 33005KT 9999 SCT010
Wind Visibility Clouds Conditions
330° at 5 knots 10,000+ meters
  • Scattered at 1,000' AGL
  • Mist
Becoming Nov-18 @ 15:00 to Nov-18 @ 18:00
BECMG 1815/1817 SCT030 FEW035TCU RMK PDY
Wind Visibility Clouds Conditions
330° at 5 knots 10,000+ meters
  • Scattered at 3,000' AGL
  • Few at 3,500' AGL
  • Mist
TAF SBRB 171600Z 1718/1818 32005KT 9999 SCT025 FEW030TCU TX30/1719Z T N23/1808Z BECMG 1719/1721 27002KT 9999 TSRA SCT020 FEW025CB BECMG 1723/1801 36 005KT 9999 SCT017 BECMG 1803/1805 06003KT FEW005 BECMG 1807/1809 23002KT 5 000 BR FEW015 BECMG 1811/1813 33005KT 9999 SCT010 BECMG 1815/1817 SCT030 FEW035TCU RMK PDY
Issued Nov-17 @ 16:00 UTC
(6 hours ago)
Valid From Nov-17 @ 18:00 UTC
(4 hours ago)
Valid To Nov-18 @ 18:00 UTC
(in 20 hours)
Nov-17 @ 18:00 - Nov-17 @ 19:00
Wind Visibility
320° at 5 knots 10,000+ meters
Clouds
  • Scattered at 2,500' AGL
  • Few at 3,000' AGL
Becoming Nov-17 @ 19:00 - Nov-17 @ 23:00
Wind Visibility
270° at 2 knots 10,000+ meters
Clouds
  • Scattered at 2,000' AGL
  • Few at 2,500' AGL
Conditions
  • Thunderstorm
  • Rain
Becoming Nov-17 @ 23:00 - Nov-18 @ 03:00
Wind Visibility
270° at 2 knots 10,000+ meters
Clouds
  • Scattered at 1,700' AGL
Conditions
  • Thunderstorm
  • Rain
Becoming Nov-18 @ 03:00 - Nov-18 @ 07:00
Wind Visibility
60° at 3 knots 10,000+ meters
Clouds
  • Few at 500' AGL
Conditions
  • Thunderstorm
  • Rain
Becoming Nov-18 @ 07:00 - Nov-18 @ 11:00
Wind Visibility
230° at 2 knots 10,000+ meters
Clouds
  • Few at 1,500' AGL
Conditions
  • Mist
Becoming Nov-18 @ 11:00 - Nov-18 @ 15:00
Wind Visibility
330° at 5 knots 10,000+ meters
Clouds
  • Scattered at 1,000' AGL
Conditions
  • Mist
Becoming Nov-18 @ 15:00 - Nov-18 @ 18:00
Wind Visibility
330° at 5 knots 10,000+ meters
Clouds
  • Scattered at 3,000' AGL
  • Few at 3,500' AGL
Conditions
  • Mist